sensor_id;sensor_type;location;lat;lon;timestamp;temperature;humidity
30001;DHT22;16845;48.670;9.000;2022-12-07T00:02:31;3.40;99.90
30001;DHT22;16845;48.670;9.000;2022-12-07T00:05:00;3.40;99.90
30001;DHT22;16845;48.670;9.000;2022-12-07T00:07:30;3.40;99.90
30001;DHT22;16845;48.670;9.000;2022-12-07T00:10:07;3.40;99.90
30001;DHT22;16845;48.670;9.000;2022-12-07T00:12:42;3.30;99.90
30001;DHT22;16845;48.670;9.000;2022-12-07T00:15:12;3.30;99.90
30001;DHT22;16845;48.670;9.000;2022-12-07T00:17:42;3.30;99.90
30001;DHT22;16845;48.670;9.000;2022-12-07T00:20:14;3.30;99.90
30001;DHT22;16845;48.670;9.000;2022-12-07T00:22:47;3.40;99.90
30001;DHT22;16845;48.670;9.000;2022-12-07T00:25:18;3.30;99.90
30001;DHT22;16845;48.670;9.000;2022-12-07T00:27:50;3.40;99.90
30001;DHT22;16845;48.670;9.000;2022-12-07T00:30:24;3.30;99.90
30001;DHT22;16845;48.670;9.000;2022-12-07T00:32:52;3.30;99.90
30001;DHT22;16845;48.670;9.000;2022-12-07T00:35:30;3.40;99.90
30001;DHT22;16845;48.670;9.000;2022-12-07T00:38:05;3.30;99.90
30001;DHT22;16845;48.670;9.000;2022-12-07T00:40:35;3.30;99.90
30001;DHT22;16845;48.670;9.000;2022-12-07T00:43:07;3.30;99.90
30001;DHT22;16845;48.670;9.000;2022-12-07T00:45:40;3.30;99.90
30001;DHT22;16845;48.670;9.000;2022-12-07T00:48:12;3.40;99.90
30001;DHT22;16845;48.670;9.000;2022-12-07T00:50:44;3.30;99.90
30001;DHT22;16845;48.670;9.000;2022-12-07T00:53:17;3.30;99.90
30001;DHT22;16845;48.670;9.000;2022-12-07T00:55:47;3.30;99.90
30001;DHT22;16845;48.670;9.000;2022-12-07T00:58:18;3.40;99.90
30001;DHT22;16845;48.670;9.000;2022-12-07T01:00:51;3.40;99.90
30001;DHT22;16845;48.670;9.000;2022-12-07T01:03:19;3.40;99.90
30001;DHT22;16845;48.670;9.000;2022-12-07T01:05:52;3.40;99.90
30001;DHT22;16845;48.670;9.000;2022-12-07T01:08:21;3.40;99.90
30001;DHT22;16845;48.670;9.000;2022-12-07T01:11:01;3.40;99.90
30001;DHT22;16845;48.670;9.000;2022-12-07T01:13:30;3.30;99.90
30001;DHT22;16845;48.670;9.000;2022-12-07T01:16:03;3.30;99.90
30001;DHT22;16845;48.670;9.000;2022-12-07T01:18:33;3.30;99.90
30001;DHT22;16845;48.670;9.000;2022-12-07T01:21:07;3.30;99.90
30001;DHT22;16845;48.670;9.000;2022-12-07T01:23:36;3.30;99.90
30001;DHT22;16845;48.670;9.000;2022-12-07T01:26:10;3.30;99.90
30001;DHT22;16845;48.670;9.000;2022-12-07T01:28:39;3.40;99.90
30001;DHT22;16845;48.670;9.000;2022-12-07T01:31:11;3.40;99.90
30001;DHT22;16845;48.670;9.000;2022-12-07T01:33:46;3.30;99.90
30001;DHT22;16845;48.670;9.000;2022-12-07T01:36:19;3.30;99.90
30001;DHT22;16845;48.670;9.000;2022-12-07T01:38:50;3.20;99.90
30001;DHT22;16845;48.670;9.000;2022-12-07T01:41:23;3.20;99.90
30001;DHT22;16845;48.670;9.000;2022-12-07T01:44:20;3.30;99.90
30001;DHT22;16845;48.670;9.000;2022-12-07T01:46:53;3.30;99.90
30001;DHT22;16845;48.670;9.000;2022-12-07T01:49:29;3.20;99.90
30001;DHT22;16845;48.670;9.000;2022-12-07T01:52:13;3.10;99.90
30001;DHT22;16845;48.670;9.000;2022-12-07T01:54:50;3.10;99.90
30001;DHT22;16845;48.670;9.000;2022-12-07T01:57:25;3.00;99.90
30001;DHT22;16845;48.670;9.000;2022-12-07T01:59:55;3.10;99.90
30001;DHT22;16845;48.670;9.000;2022-12-07T02:02:34;3.10;99.90
30001;DHT22;16845;48.670;9.000;2022-12-07T02:05:05;3.10;99.90
30001;DHT22;16845;48.670;9.000;2022-12-07T02:07:36;3.20;99.90
30001;DHT22;16845;48.670;9.000;2022-12-07T02:10:14;3.10;99.90
30001;DHT22;16845;48.670;9.000;2022-12-07T02:12:43;3.10;99.90
30001;DHT22;16845;48.670;9.000;2022-12-07T02:15:15;3.10;99.90
30001;DHT22;16845;48.670;9.000;2022-12-07T02:17:51;3.10;99.90
30001;DHT22;16845;48.670;9.000;2022-12-07T02:20:29;3.10;99.90
30001;DHT22;16845;48.670;9.000;2022-12-07T02:23:22;3.20;99.90
30001;DHT22;16845;48.670;9.000;2022-12-07T02:26:18;3.10;99.90
30001;DHT22;16845;48.670;9.000;2022-12-07T02:29:17;3.10;99.90
30001;DHT22;16845;48.670;9.000;2022-12-07T02:32:06;3.10;99.90
30001;DHT22;16845;48.670;9.000;2022-12-07T02:34:44;3.10;99.90
30001;DHT22;16845;48.670;9.000;2022-12-07T02:37:23;3.10;99.90
30001;DHT22;16845;48.670;9.000;2022-12-07T02:39:58;3.00;99.90
30001;DHT22;16845;48.670;9.000;2022-12-07T02:42:35;3.00;99.90
30001;DHT22;16845;48.670;9.000;2022-12-07T02:45:20;3.00;99.90
30001;DHT22;16845;48.670;9.000;2022-12-07T02:47:51;3.00;99.90
30001;DHT22;16845;48.670;9.000;2022-12-07T02:50:22;3.00;99.90
30001;DHT22;16845;48.670;9.000;2022-12-07T02:52:57;3.00;99.90
30001;DHT22;16845;48.670;9.000;2022-12-07T02:55:29;3.00;99.90
30001;DHT22;16845;48.670;9.000;2022-12-07T02:58:32;3.00;99.90
30001;DHT22;16845;48.670;9.000;2022-12-07T03:01:19;3.00;99.90
30001;DHT22;16845;48.670;9.000;2022-12-07T03:04:08;3.00;99.90
30001;DHT22;16845;48.670;9.000;2022-12-07T03:06:53;3.00;99.90
30001;DHT22;16845;48.670;9.000;2022-12-07T03:09:56;3.00;99.90
30001;DHT22;16845;48.670;9.000;2022-12-07T03:12:44;3.00;99.90
30001;DHT22;16845;48.670;9.000;2022-12-07T03:15:23;3.00;99.90
30001;DHT22;16845;48.670;9.000;2022-12-07T03:17:57;3.00;99.90
30001;DHT22;16845;48.670;9.000;2022-12-07T03:20:29;3.00;99.90
30001;DHT22;16845;48.670;9.000;2022-12-07T03:22:57;2.90;99.90
30001;DHT22;16845;48.670;9.000;2022-12-07T03:25:26;3.00;99.90
30001;DHT22;16845;48.670;9.000;2022-12-07T03:27:58;2.90;99.90
30001;DHT22;16845;48.670;9.000;2022-12-07T03:30:34;2.90;99.90
30001;DHT22;16845;48.670;9.000;2022-12-07T03:33:08;3.00;99.90
30001;DHT22;16845;48.670;9.000;2022-12-07T03:35:40;3.00;99.90
30001;DHT22;16845;48.670;9.000;2022-12-07T03:38:15;2.90;99.90
30001;DHT22;16845;48.670;9.000;2022-12-07T03:40:49;2.90;99.90
30001;DHT22;16845;48.670;9.000;2022-12-07T03:43:21;2.90;99.90
30001;DHT22;16845;48.670;9.000;2022-12-07T03:45:58;2.90;99.90
30001;DHT22;16845;48.670;9.000;2022-12-07T03:48:32;2.90;99.90
30001;DHT22;16845;48.670;9.000;2022-12-07T03:51:06;2.90;99.90
30001;DHT22;16845;48.670;9.000;2022-12-07T03:53:40;2.80;99.90
30001;DHT22;16845;48.670;9.000;2022-12-07T03:56:10;2.80;99.90
30001;DHT22;16845;48.670;9.000;2022-12-07T03:58:40;2.80;99.90
30001;DHT22;16845;48.670;9.000;2022-12-07T04:01:08;2.80;99.90
30001;DHT22;16845;48.670;9.000;2022-12-07T04:03:38;2.80;99.90
30001;DHT22;16845;48.670;9.000;2022-12-07T04:06:06;2.80;99.90
30001;DHT22;16845;48.670;9.000;2022-12-07T04:08:34;2.80;99.90
30001;DHT22;16845;48.670;9.000;2022-12-07T04:11:02;2.80;99.90
30001;DHT22;16845;48.670;9.000;2022-12-07T04:13:30;2.80;99.90
30001;DHT22;16845;48.670;9.000;2022-12-07T04:16:18;2.80;99.90
30001;DHT22;16845;48.670;9.000;2022-12-07T04:18:47;2.80;99.90
30001;DHT22;16845;48.670;9.000;2022-12-07T04:21:15;2.80;99.90
30001;DHT22;16845;48.670;9.000;2022-12-07T04:23:43;2.80;99.90
30001;DHT22;16845;48.670;9.000;2022-12-07T04:26:11;2.80;99.90
30001;DHT22;16845;48.670;9.000;2022-12-07T04:28:39;2.80;99.90
30001;DHT22;16845;48.670;9.000;2022-12-07T04:31:07;2.80;99.90
30001;DHT22;16845;48.670;9.000;2022-12-07T04:33:35;2.80;99.90
30001;DHT22;16845;48.670;9.000;2022-12-07T04:36:05;2.80;99.90
30001;DHT22;16845;48.670;9.000;2022-12-07T04:38:33;2.80;99.90
30001;DHT22;16845;48.670;9.000;2022-12-07T04:41:04;2.80;99.90
30001;DHT22;16845;48.670;9.000;2022-12-07T04:43:33;2.80;99.90
30001;DHT22;16845;48.670;9.000;2022-12-07T04:46:01;2.70;99.90
30001;DHT22;16845;48.670;9.000;2022-12-07T04:48:29;2.80;99.90
30001;DHT22;16845;48.670;9.000;2022-12-07T04:50:57;2.80;99.90
30001;DHT22;16845;48.670;9.000;2022-12-07T04:53:26;2.70;99.90
30001;DHT22;16845;48.670;9.000;2022-12-07T04:55:54;2.70;99.90
30001;DHT22;16845;48.670;9.000;2022-12-07T04:58:22;2.70;99.90
30001;DHT22;16845;48.670;9.000;2022-12-07T05:00:53;2.70;99.90
30001;DHT22;16845;48.670;9.000;2022-12-07T05:03:22;2.60;99.90
30001;DHT22;16845;48.670;9.000;2022-12-07T05:05:50;2.60;99.90
30001;DHT22;16845;48.670;9.000;2022-12-07T05:08:17;2.60;99.90
30001;DHT22;16845;48.670;9.000;2022-12-07T05:10:48;2.60;99.90
30001;DHT22;16845;48.670;9.000;2022-12-07T05:13:16;2.60;99.90
30001;DHT22;16845;48.670;9.000;2022-12-07T05:15:44;2.40;99.90
30001;DHT22;16845;48.670;9.000;2022-12-07T05:18:14;2.40;99.90
30001;DHT22;16845;48.670;9.000;2022-12-07T05:20:42;2.30;99.90
30001;DHT22;16845;48.670;9.000;2022-12-07T05:23:11;2.40;99.90
30001;DHT22;16845;48.670;9.000;2022-12-07T05:25:39;2.40;99.90
30001;DHT22;16845;48.670;9.000;2022-12-07T05:28:09;2.40;99.90
30001;DHT22;16845;48.670;9.000;2022-12-07T05:30:37;2.40;99.90
30001;DHT22;16845;48.670;9.000;2022-12-07T05:33:05;2.40;99.90
30001;DHT22;16845;48.670;9.000;2022-12-07T05:35:33;2.40;99.90
30001;DHT22;16845;48.670;9.000;2022-12-07T05:38:01;2.30;99.90
30001;DHT22;16845;48.670;9.000;2022-12-07T05:40:29;2.20;99.90
30001;DHT22;16845;48.670;9.000;2022-12-07T05:42:57;2.10;99.90
30001;DHT22;16845;48.670;9.000;2022-12-07T05:45:32;2.10;99.90
30001;DHT22;16845;48.670;9.000;2022-12-07T05:48:00;2.00;99.90
30001;DHT22;16845;48.670;9.000;2022-12-07T05:50:27;1.90;99.90
30001;DHT22;16845;48.670;9.000;2022-12-07T05:52:55;1.80;99.90
30001;DHT22;16845;48.670;9.000;2022-12-07T05:55:23;1.80;99.90
30001;DHT22;16845;48.670;9.000;2022-12-07T05:57:51;1.80;99.90
30001;DHT22;16845;48.670;9.000;2022-12-07T06:00:34;1.70;99.90
30001;DHT22;16845;48.670;9.000;2022-12-07T06:03:02;1.70;99.90
30001;DHT22;16845;48.670;9.000;2022-12-07T06:05:30;1.60;99.90
30001;DHT22;16845;48.670;9.000;2022-12-07T06:07:58;1.60;99.90
30001;DHT22;16845;48.670;9.000;2022-12-07T06:10:31;1.50;99.90
30001;DHT22;16845;48.670;9.000;2022-12-07T06:12:59;1.50;99.90
30001;DHT22;16845;48.670;9.000;2022-12-07T06:15:26;1.40;99.90
30001;DHT22;16845;48.670;9.000;2022-12-07T06:17:55;1.30;99.90
30001;DHT22;16845;48.670;9.000;2022-12-07T06:20:23;1.30;99.90
30001;DHT22;16845;48.670;9.000;2022-12-07T06:22:51;1.20;99.90
30001;DHT22;16845;48.670;9.000;2022-12-07T06:25:19;1.30;99.90
30001;DHT22;16845;48.670;9.000;2022-12-07T06:27:47;1.30;99.90
30001;DHT22;16845;48.670;9.000;2022-12-07T06:30:15;1.30;99.90
30001;DHT22;16845;48.670;9.000;2022-12-07T06:32:43;1.40;99.90
30001;DHT22;16845;48.670;9.000;2022-12-07T06:35:12;1.50;99.90
30001;DHT22;16845;48.670;9.000;2022-12-07T06:37:40;1.60;99.90
30001;DHT22;16845;48.670;9.000;2022-12-07T06:40:09;1.70;99.90
30001;DHT22;16845;48.670;9.000;2022-12-07T06:42:37;1.70;99.90
30001;DHT22;16845;48.670;9.000;2022-12-07T06:45:05;1.80;99.90
30001;DHT22;16845;48.670;9.000;2022-12-07T06:47:33;1.80;99.90
30001;DHT22;16845;48.670;9.000;2022-12-07T06:50:09;1.80;99.90
30001;DHT22;16845;48.670;9.000;2022-12-07T06:52:38;1.80;99.90
30001;DHT22;16845;48.670;9.000;2022-12-07T06:55:07;1.80;99.90
30001;DHT22;16845;48.670;9.000;2022-12-07T06:57:35;1.90;99.90
30001;DHT22;16845;48.670;9.000;2022-12-07T07:00:04;2.00;99.90
30001;DHT22;16845;48.670;9.000;2022-12-07T07:02:32;1.90;99.90
30001;DHT22;16845;48.670;9.000;2022-12-07T07:05:00;1.90;99.90
30001;DHT22;16845;48.670;9.000;2022-12-07T07:07:28;1.90;99.90
30001;DHT22;16845;48.670;9.000;2022-12-07T07:09:58;1.90;99.90
30001;DHT22;16845;48.670;9.000;2022-12-07T07:12:26;1.90;99.90
30001;DHT22;16845;48.670;9.000;2022-12-07T07:14:54;1.90;99.90
30001;DHT22;16845;48.670;9.000;2022-12-07T07:17:23;1.80;99.90
30001;DHT22;16845;48.670;9.000;2022-12-07T07:19:51;1.80;99.90
30001;DHT22;16845;48.670;9.000;2022-12-07T07:22:18;1.90;99.90
30001;DHT22;16845;48.670;9.000;2022-12-07T07:24:46;1.90;99.90
30001;DHT22;16845;48.670;9.000;2022-12-07T07:27:16;1.90;99.90
30001;DHT22;16845;48.670;9.000;2022-12-07T07:29:43;1.90;99.90
30001;DHT22;16845;48.670;9.000;2022-12-07T07:32:11;1.90;99.90
30001;DHT22;16845;48.670;9.000;2022-12-07T07:34:40;1.90;99.90
30001;DHT22;16845;48.670;9.000;2022-12-07T07:37:08;2.00;99.90
30001;DHT22;16845;48.670;9.000;2022-12-07T07:39:37;2.00;99.90
30001;DHT22;16845;48.670;9.000;2022-12-07T07:42:06;2.00;99.90
30001;DHT22;16845;48.670;9.000;2022-12-07T07:44:36;2.10;99.90
30001;DHT22;16845;48.670;9.000;2022-12-07T07:47:04;2.10;99.90
30001;DHT22;16845;48.670;9.000;2022-12-07T07:49:32;2.20;99.90
30001;DHT22;16845;48.670;9.000;2022-12-07T07:52:00;2.20;99.90
30001;DHT22;16845;48.670;9.000;2022-12-07T07:54:28;2.30;99.90
30001;DHT22;16845;48.670;9.000;2022-12-07T07:56:56;2.20;99.90
30001;DHT22;16845;48.670;9.000;2022-12-07T07:59:24;2.30;99.90
30001;DHT22;16845;48.670;9.000;2022-12-07T08:01:53;2.30;99.90
30001;DHT22;16845;48.670;9.000;2022-12-07T08:04:21;2.30;99.90
30001;DHT22;16845;48.670;9.000;2022-12-07T08:06:49;2.30;99.90
30001;DHT22;16845;48.670;9.000;2022-12-07T08:09:17;2.30;99.90
30001;DHT22;16845;48.670;9.000;2022-12-07T08:11:45;2.40;99.90
30001;DHT22;16845;48.670;9.000;2022-12-07T08:14:13;2.50;99.90
30001;DHT22;16845;48.670;9.000;2022-12-07T08:16:41;2.60;99.90
30001;DHT22;16845;48.670;9.000;2022-12-07T08:19:10;2.60;99.90
30001;DHT22;16845;48.670;9.000;2022-12-07T08:21:38;2.60;99.90
30001;DHT22;16845;48.670;9.000;2022-12-07T08:24:06;2.70;99.90
30001;DHT22;16845;48.670;9.000;2022-12-07T08:26:34;2.70;99.90
30001;DHT22;16845;48.670;9.000;2022-12-07T08:29:02;2.60;99.90
30001;DHT22;16845;48.670;9.000;2022-12-07T08:31:30;2.70;99.90
30001;DHT22;16845;48.670;9.000;2022-12-07T08:33:58;2.80;99.90
30001;DHT22;16845;48.670;9.000;2022-12-07T08:36:28;2.80;99.90
30001;DHT22;16845;48.670;9.000;2022-12-07T08:38:55;2.90;99.90
30001;DHT22;16845;48.670;9.000;2022-12-07T08:41:43;2.90;99.90
30001;DHT22;16845;48.670;9.000;2022-12-07T08:44:11;3.00;99.90
30001;DHT22;16845;48.670;9.000;2022-12-07T08:46:42;3.00;99.90
30001;DHT22;16845;48.670;9.000;2022-12-07T08:49:17;3.10;99.90
30001;DHT22;16845;48.670;9.000;2022-12-07T08:51:48;3.10;99.90
30001;DHT22;16845;48.670;9.000;2022-12-07T08:54:17;3.20;99.90
30001;DHT22;16845;48.670;9.000;2022-12-07T08:56:47;3.30;99.90
30001;DHT22;16845;48.670;9.000;2022-12-07T08:59:23;3.40;99.90
30001;DHT22;16845;48.670;9.000;2022-12-07T09:01:51;3.50;99.90
30001;DHT22;16845;48.670;9.000;2022-12-07T09:04:19;3.40;99.90
30001;DHT22;16845;48.670;9.000;2022-12-07T09:06:48;3.40;99.90
30001;DHT22;16845;48.670;9.000;2022-12-07T09:09:16;3.50;99.90
30001;DHT22;16845;48.670;9.000;2022-12-07T09:11:44;3.60;99.90
30001;DHT22;16845;48.670;9.000;2022-12-07T09:14:12;3.80;99.90
30001;DHT22;16845;48.670;9.000;2022-12-07T09:16:40;3.80;99.90
30001;DHT22;16845;48.670;9.000;2022-12-07T09:19:08;3.90;99.90
30001;DHT22;16845;48.670;9.000;2022-12-07T09:21:36;4.00;99.90
30001;DHT22;16845;48.670;9.000;2022-12-07T09:24:06;4.00;99.90
30001;DHT22;16845;48.670;9.000;2022-12-07T09:26:35;4.20;99.90
30001;DHT22;16845;48.670;9.000;2022-12-07T09:29:07;4.20;99.90
30001;DHT22;16845;48.670;9.000;2022-12-07T09:31:36;4.30;99.90
30001;DHT22;16845;48.670;9.000;2022-12-07T09:34:05;4.30;99.90
30001;DHT22;16845;48.670;9.000;2022-12-07T09:36:34;4.30;99.90
30001;DHT22;16845;48.670;9.000;2022-12-07T09:39:02;4.30;99.90
30001;DHT22;16845;48.670;9.000;2022-12-07T09:41:33;4.30;99.90
30001;DHT22;16845;48.670;9.000;2022-12-07T09:44:06;4.30;99.90
30001;DHT22;16845;48.670;9.000;2022-12-07T09:46:36;4.30;99.90
30001;DHT22;16845;48.670;9.000;2022-12-07T09:49:11;4.30;99.90
30001;DHT22;16845;48.670;9.000;2022-12-07T09:51:40;4.50;99.90
30001;DHT22;16845;48.670;9.000;2022-12-07T09:54:09;4.60;99.90
30001;DHT22;16845;48.670;9.000;2022-12-07T09:56:41;4.80;99.90
30001;DHT22;16845;48.670;9.000;2022-12-07T09:59:15;4.80;99.90
30001;DHT22;16845;48.670;9.000;2022-12-07T10:01:45;4.80;99.90
30001;DHT22;16845;48.670;9.000;2022-12-07T10:04:15;5.00;99.90
30001;DHT22;16845;48.670;9.000;2022-12-07T10:06:44;5.00;99.90
30001;DHT22;16845;48.670;9.000;2022-12-07T10:09:15;5.00;99.90
30001;DHT22;16845;48.670;9.000;2022-12-07T10:12:04;5.10;99.90
30001;DHT22;16845;48.670;9.000;2022-12-07T10:14:34;5.10;99.90
30001;DHT22;16845;48.670;9.000;2022-12-07T10:17:35;5.10;99.90
30001;DHT22;16845;48.670;9.000;2022-12-07T10:20:17;5.20;99.90
30001;DHT22;16845;48.670;9.000;2022-12-07T10:23:00;5.30;99.90
30001;DHT22;16845;48.670;9.000;2022-12-07T10:25:30;5.40;99.90
30001;DHT22;16845;48.670;9.000;2022-12-07T10:28:17;5.60;99.90
30001;DHT22;16845;48.670;9.000;2022-12-07T10:30:53;5.50;99.90
30001;DHT22;16845;48.670;9.000;2022-12-07T10:33:32;5.50;99.90
30001;DHT22;16845;48.670;9.000;2022-12-07T10:36:16;5.50;99.90
30001;DHT22;16845;48.670;9.000;2022-12-07T10:38:46;5.50;99.90
30001;DHT22;16845;48.670;9.000;2022-12-07T10:41:15;5.60;99.90
30001;DHT22;16845;48.670;9.000;2022-12-07T10:43:52;5.60;99.90
30001;DHT22;16845;48.670;9.000;2022-12-07T10:46:46;5.70;99.90
30001;DHT22;16845;48.670;9.000;2022-12-07T10:49:39;5.50;99.90
30001;DHT22;16845;48.670;9.000;2022-12-07T10:52:18;5.60;99.90
30001;DHT22;16845;48.670;9.000;2022-12-07T10:55:01;5.70;99.90
30001;DHT22;16845;48.670;9.000;2022-12-07T10:57:41;5.50;99.90
30001;DHT22;16845;48.670;9.000;2022-12-07T11:00:18;5.60;99.90
30001;DHT22;16845;48.670;9.000;2022-12-07T11:03:04;5.80;99.90
30001;DHT22;16845;48.670;9.000;2022-12-07T11:05:39;5.60;99.90
30001;DHT22;16845;48.670;9.000;2022-12-07T11:08:20;5.50;99.90
30001;DHT22;16845;48.670;9.000;2022-12-07T11:10:54;5.50;99.90
30001;DHT22;16845;48.670;9.000;2022-12-07T11:13:26;5.40;99.90
30001;DHT22;16845;48.670;9.000;2022-12-07T11:16:16;5.40;99.90
30001;DHT22;16845;48.670;9.000;2022-12-07T11:19:11;5.50;99.90
30001;DHT22;16845;48.670;9.000;2022-12-07T11:21:47;5.60;99.90
30001;DHT22;16845;48.670;9.000;2022-12-07T11:24:17;5.60;99.90
30001;DHT22;16845;48.670;9.000;2022-12-07T11:27:02;5.60;99.90
30001;DHT22;16845;48.670;9.000;2022-12-07T11:29:47;5.50;99.90
30001;DHT22;16845;48.670;9.000;2022-12-07T11:32:23;5.50;99.90
30001;DHT22;16845;48.670;9.000;2022-12-07T11:35:02;5.50;99.90
30001;DHT22;16845;48.670;9.000;2022-12-07T11:37:35;5.40;99.90
30001;DHT22;16845;48.670;9.000;2022-12-07T11:40:13;5.30;99.90
30001;DHT22;16845;48.670;9.000;2022-12-07T11:42:46;5.20;99.90
30001;DHT22;16845;48.670;9.000;2022-12-07T11:45:20;5.30;99.90
30001;DHT22;16845;48.670;9.000;2022-12-07T11:47:54;5.40;99.90
30001;DHT22;16845;48.670;9.000;2022-12-07T11:50:27;5.40;99.90
30001;DHT22;16845;48.670;9.000;2022-12-07T11:53:00;5.60;99.90
30001;DHT22;16845;48.670;9.000;2022-12-07T11:55:32;5.70;99.90
30001;DHT22;16845;48.670;9.000;2022-12-07T11:58:19;5.70;99.90
30001;DHT22;16845;48.670;9.000;2022-12-07T12:00:49;5.70;99.90
30001;DHT22;16845;48.670;9.000;2022-12-07T12:03:24;5.60;99.90
30001;DHT22;16845;48.670;9.000;2022-12-07T12:05:57;5.60;99.90
30001;DHT22;16845;48.670;9.000;2022-12-07T12:08:29;5.60;99.90
30001;DHT22;16845;48.670;9.000;2022-12-07T12:11:29;5.60;99.90
30001;DHT22;16845;48.670;9.000;2022-12-07T12:14:17;5.30;99.90
30001;DHT22;16845;48.670;9.000;2022-12-07T12:17:27;5.20;99.90
30001;DHT22;16845;48.670;9.000;2022-12-07T12:20:02;5.20;99.90
30001;DHT22;16845;48.670;9.000;2022-12-07T12:22:36;5.30;99.90
30001;DHT22;16845;48.670;9.000;2022-12-07T12:25:07;5.10;99.90
30001;DHT22;16845;48.670;9.000;2022-12-07T12:27:45;5.00;99.90
30001;DHT22;16845;48.670;9.000;2022-12-07T12:30:31;5.00;99.90
30001;DHT22;16845;48.670;9.000;2022-12-07T12:33:14;4.90;99.90
30001;DHT22;16845;48.670;9.000;2022-12-07T12:35:45;4.90;99.90
30001;DHT22;16845;48.670;9.000;2022-12-07T12:38:47;5.00;99.90
30001;DHT22;16845;48.670;9.000;2022-12-07T12:47:51;5.00;99.90
30001;DHT22;16845;48.670;9.000;2022-12-07T12:50:23;5.10;99.90
30001;DHT22;16845;48.670;9.000;2022-12-07T12:52:57;5.10;99.90
30001;DHT22;16845;48.670;9.000;2022-12-07T12:55:49;5.00;99.90
30001;DHT22;16845;48.670;9.000;2022-12-07T12:58:29;5.00;99.90
30001;DHT22;16845;48.670;9.000;2022-12-07T13:01:36;4.90;99.90
30001;DHT22;16845;48.670;9.000;2022-12-07T13:04:34;4.90;99.90
30001;DHT22;16845;48.670;9.000;2022-12-07T13:07:08;5.00;99.90
30001;DHT22;16845;48.670;9.000;2022-12-07T13:09:43;5.00;99.90
30001;DHT22;16845;48.670;9.000;2022-12-07T13:12:14;5.00;99.90
30001;DHT22;16845;48.670;9.000;2022-12-07T13:14:56;4.90;99.90
30001;DHT22;16845;48.670;9.000;2022-12-07T13:17:59;5.00;99.90
30001;DHT22;16845;48.670;9.000;2022-12-07T13:20:50;5.00;99.90
30001;DHT22;16845;48.670;9.000;2022-12-07T13:23:38;5.10;99.90
30001;DHT22;16845;48.670;9.000;2022-12-07T13:26:17;5.00;99.90
30001;DHT22;16845;48.670;9.000;2022-12-07T13:28:48;5.10;99.90
30001;DHT22;16845;48.670;9.000;2022-12-07T13:31:35;5.00;99.90
30001;DHT22;16845;48.670;9.000;2022-12-07T13:34:27;5.10;99.90
30001;DHT22;16845;48.670;9.000;2022-12-07T13:36:54;5.10;99.90
30001;DHT22;16845;48.670;9.000;2022-12-07T13:39:24;5.20;99.90
30001;DHT22;16845;48.670;9.000;2022-12-07T13:41:55;5.20;99.90
30001;DHT22;16845;48.670;9.000;2022-12-07T13:44:26;5.20;99.90
30001;DHT22;16845;48.670;9.000;2022-12-07T13:47:03;5.10;99.90
30001;DHT22;16845;48.670;9.000;2022-12-07T13:49:38;5.00;99.90
30001;DHT22;16845;48.670;9.000;2022-12-07T13:52:15;4.90;99.90
30001;DHT22;16845;48.670;9.000;2022-12-07T13:54:46;4.90;99.90
30001;DHT22;16845;48.670;9.000;2022-12-07T13:57:17;4.90;99.90
30001;DHT22;16845;48.670;9.000;2022-12-07T13:59:46;4.90;99.90
30001;DHT22;16845;48.670;9.000;2022-12-07T14:02:19;4.80;99.90
30001;DHT22;16845;48.670;9.000;2022-12-07T14:04:49;4.70;99.90
30001;DHT22;16845;48.670;9.000;2022-12-07T14:07:24;4.90;99.90
30001;DHT22;16845;48.670;9.000;2022-12-07T14:10:00;4.80;99.90
30001;DHT22;16845;48.670;9.000;2022-12-07T14:12:31;4.80;99.90
30001;DHT22;16845;48.670;9.000;2022-12-07T14:15:02;4.80;99.90
30001;DHT22;16845;48.670;9.000;2022-12-07T14:17:31;4.60;99.90
30001;DHT22;16845;48.670;9.000;2022-12-07T14:20:02;4.60;99.90
30001;DHT22;16845;48.670;9.000;2022-12-07T14:22:33;4.70;99.90
30001;DHT22;16845;48.670;9.000;2022-12-07T14:25:17;4.70;99.90
30001;DHT22;16845;48.670;9.000;2022-12-07T14:27:51;4.50;99.90
30001;DHT22;16845;48.670;9.000;2022-12-07T14:30:25;4.50;99.90
30001;DHT22;16845;48.670;9.000;2022-12-07T14:32:59;4.50;99.90
30001;DHT22;16845;48.670;9.000;2022-12-07T14:35:29;4.40;99.90
30001;DHT22;16845;48.670;9.000;2022-12-07T14:37:58;4.40;99.90
30001;DHT22;16845;48.670;9.000;2022-12-07T14:40:28;4.50;99.90
30001;DHT22;16845;48.670;9.000;2022-12-07T14:43:01;4.40;99.90
30001;DHT22;16845;48.670;9.000;2022-12-07T14:45:30;4.30;99.90
30001;DHT22;16845;48.670;9.000;2022-12-07T14:47:58;4.30;99.90
30001;DHT22;16845;48.670;9.000;2022-12-07T14:50:50;4.20;99.90
30001;DHT22;16845;48.670;9.000;2022-12-07T14:53:41;4.20;99.90
30001;DHT22;16845;48.670;9.000;2022-12-07T14:56:16;4.10;99.90
30001;DHT22;16845;48.670;9.000;2022-12-07T14:58:47;4.00;99.90
30001;DHT22;16845;48.670;9.000;2022-12-07T15:01:16;4.00;99.90
30001;DHT22;16845;48.670;9.000;2022-12-07T15:03:45;4.00;99.90
30001;DHT22;16845;48.670;9.000;2022-12-07T15:06:16;4.00;99.90
30001;DHT22;16845;48.670;9.000;2022-12-07T15:08:44;3.90;99.90
30001;DHT22;16845;48.670;9.000;2022-12-07T15:11:13;3.90;99.90
30001;DHT22;16845;48.670;9.000;2022-12-07T15:13:41;3.90;99.90
30001;DHT22;16845;48.670;9.000;2022-12-07T15:16:31;3.90;99.90
30001;DHT22;16845;48.670;9.000;2022-12-07T15:19:21;3.80;99.90
30001;DHT22;16845;48.670;9.000;2022-12-07T15:21:55;3.80;99.90
30001;DHT22;16845;48.670;9.000;2022-12-07T15:24:24;3.80;99.90
30001;DHT22;16845;48.670;9.000;2022-12-07T15:26:52;3.80;99.90
30001;DHT22;16845;48.670;9.000;2022-12-07T15:29:21;3.80;99.90
30001;DHT22;16845;48.670;9.000;2022-12-07T15:31:51;3.70;99.90
30001;DHT22;16845;48.670;9.000;2022-12-07T15:34:23;3.70;99.90
30001;DHT22;16845;48.670;9.000;2022-12-07T15:36:51;3.70;99.90
30001;DHT22;16845;48.670;9.000;2022-12-07T15:39:19;3.70;99.90
30001;DHT22;16845;48.670;9.000;2022-12-07T15:41:48;3.60;99.90
30001;DHT22;16845;48.670;9.000;2022-12-07T15:44:16;3.70;99.90
30001;DHT22;16845;48.670;9.000;2022-12-07T15:47:04;3.70;99.90
30001;DHT22;16845;48.670;9.000;2022-12-07T15:49:32;3.70;99.90
30001;DHT22;16845;48.670;9.000;2022-12-07T15:52:00;3.60;99.90
30001;DHT22;16845;48.670;9.000;2022-12-07T15:54:29;3.60;99.90
30001;DHT22;16845;48.670;9.000;2022-12-07T15:56:58;3.60;99.90
30001;DHT22;16845;48.670;9.000;2022-12-07T15:59:27;3.50;99.90
30001;DHT22;16845;48.670;9.000;2022-12-07T16:01:56;3.50;99.90
30001;DHT22;16845;48.670;9.000;2022-12-07T16:04:27;3.60;99.90
30001;DHT22;16845;48.670;9.000;2022-12-07T16:06:55;3.50;99.90
30001;DHT22;16845;48.670;9.000;2022-12-07T16:09:23;3.50;99.90
30001;DHT22;16845;48.670;9.000;2022-12-07T16:11:51;3.50;99.90
30001;DHT22;16845;48.670;9.000;2022-12-07T16:14:19;3.50;99.90
30001;DHT22;16845;48.670;9.000;2022-12-07T16:16:47;3.50;99.90
30001;DHT22;16845;48.670;9.000;2022-12-07T16:19:15;3.50;99.90
30001;DHT22;16845;48.670;9.000;2022-12-07T16:21:45;3.40;99.90
30001;DHT22;16845;48.670;9.000;2022-12-07T16:24:13;3.40;99.90
30001;DHT22;16845;48.670;9.000;2022-12-07T16:26:42;3.40;99.90
30001;DHT22;16845;48.670;9.000;2022-12-07T16:29:16;3.30;99.90
30001;DHT22;16845;48.670;9.000;2022-12-07T16:31:45;3.40;99.90